Terminal Aerodrome Forecast
Issued by NWS

Home | Current Version | Previous Version | Text Only | Print | Product List | Glossary On
Versions: 1 2 3 4 5 6 7 8 9 10 11 12 13 14 15 16 17 18 19 20
492
FTUS43 KGRR 242053 AAA
TAFMKG
TAF AMD
KMKG 242053Z 2421/2518 09014G22KT P6SM SCT025 OVC100
     FM242200 10014G22KT P6SM BKN025
     FM250000 10014G22KT P6SM VCSH OVC015
     FM250300 12015G25KT 5SM -SHRA BR OVC007 WS020/15045KT
     FM251000 24020G32KT P6SM OVC015
     FM251500 25020G34KT P6SM BKN025=

USA.gov is the U.S. government's official web portal to all federal, state and local government web resources and services.